sensor_id;sensor_type;location;lat;lon;timestamp;pressure;altitude;pressure_sealevel;temperature;humidity
54194;BME280;40102;50.906;6.972;2023-04-05T00:01:24;101721.50;;;8.49;42.71
54194;BME280;40102;50.906;6.972;2023-04-05T00:03:55;101713.69;;;8.42;42.93
54194;BME280;40102;50.906;6.972;2023-04-05T00:06:28;101717.41;;;8.37;43.29
54194;BME280;40102;50.906;6.972;2023-04-05T00:08:57;101715.47;;;8.12;44.03
54194;BME280;40102;50.906;6.972;2023-04-05T00:11:26;101713.81;;;8.08;44.25
54194;BME280;40102;50.906;6.972;2023-04-05T00:13:52;101714.72;;;8.07;44.30
54194;BME280;40102;50.906;6.972;2023-04-05T00:16:18;101717.56;;;8.01;44.68
54194;BME280;40102;50.906;6.972;2023-04-05T00:18:45;101710.41;;;8.03;44.63
54194;BME280;40102;50.906;6.972;2023-04-05T00:21:22;101703.19;;;8.07;44.78
54194;BME280;40102;50.906;6.972;2023-04-05T00:23:52;101703.97;;;8.10;44.75
54194;BME280;40102;50.906;6.972;2023-04-05T00:26:18;101703.00;;;8.13;44.63
54194;BME280;40102;50.906;6.972;2023-04-05T00:28:48;101703.09;;;8.10;44.63
54194;BME280;40102;50.906;6.972;2023-04-05T00:31:14;101699.91;;;7.97;44.79
54194;BME280;40102;50.906;6.972;2023-04-05T00:33:41;101705.13;;;7.71;45.43
54194;BME280;40102;50.906;6.972;2023-04-05T00:36:18;101697.47;;;7.59;46.08
54194;BME280;40102;50.906;6.972;2023-04-05T00:38:45;101698.22;;;7.64;45.98
54194;BME280;40102;50.906;6.972;2023-04-05T00:41:12;101702.56;;;7.68;45.84
54194;BME280;40102;50.906;6.972;2023-04-05T00:43:38;101699.88;;;7.68;46.00
54194;BME280;40102;50.906;6.972;2023-04-05T00:46:04;101704.47;;;7.63;46.15
54194;BME280;40102;50.906;6.972;2023-04-05T00:48:30;101706.09;;;7.68;46.10
54194;BME280;40102;50.906;6.972;2023-04-05T00:50:57;101708.13;;;7.59;46.16
54194;BME280;40102;50.906;6.972;2023-04-05T00:53:23;101702.97;;;7.20;47.11
54194;BME280;40102;50.906;6.972;2023-04-05T00:55:48;101698.44;;;6.53;49.37
54194;BME280;40102;50.906;6.972;2023-04-05T00:58:16;101705.66;;;6.07;50.35
54194;BME280;40102;50.906;6.972;2023-04-05T01:03:25;101705.00;;;5.51;51.56
54194;BME280;40102;50.906;6.972;2023-04-05T01:06:10;101704.88;;;5.58;51.08
54194;BME280;40102;50.906;6.972;2023-04-05T01:08:46;101696.47;;;5.80;50.37
54194;BME280;40102;50.906;6.972;2023-04-05T01:11:14;101678.44;;;5.98;49.55
54194;BME280;40102;50.906;6.972;2023-04-05T01:13:40;101677.25;;;6.11;49.64
54194;BME280;40102;50.906;6.972;2023-04-05T01:16:05;101676.13;;;6.21;49.68
54194;BME280;40102;50.906;6.972;2023-04-05T01:18:31;101680.50;;;6.24;49.57
54194;BME280;40102;50.906;6.972;2023-04-05T01:32:47;101684.97;;;5.35;52.89
54194;BME280;40102;50.906;6.972;2023-04-05T01:35:31;101686.50;;;5.47;53.02
54194;BME280;40102;50.906;6.972;2023-04-05T01:38:03;101681.94;;;5.55;52.87
54194;BME280;40102;50.906;6.972;2023-04-05T01:40:30;101680.81;;;5.67;52.85
54194;BME280;40102;50.906;6.972;2023-04-05T01:42:59;101679.91;;;5.68;52.93
54194;BME280;40102;50.906;6.972;2023-04-05T01:45:24;101680.72;;;5.71;52.78
54194;BME280;40102;50.906;6.972;2023-04-05T01:47:50;101675.16;;;5.83;52.15
54194;BME280;40102;50.906;6.972;2023-04-05T01:50:16;101673.88;;;5.60;52.33
54194;BME280;40102;50.906;6.972;2023-04-05T01:52:41;101680.25;;;5.51;52.35
54194;BME280;40102;50.906;6.972;2023-04-05T01:55:07;101666.19;;;5.46;52.72
54194;BME280;40102;50.906;6.972;2023-04-05T01:57:32;101670.50;;;5.51;52.17
54194;BME280;40102;50.906;6.972;2023-04-05T01:59:57;101663.19;;;5.63;52.03
54194;BME280;40102;50.906;6.972;2023-04-05T02:02:23;101660.28;;;5.75;51.71
54194;BME280;40102;50.906;6.972;2023-04-05T02:04:48;101661.22;;;5.72;51.69
54194;BME280;40102;50.906;6.972;2023-04-05T02:07:14;101656.31;;;5.52;52.36
54194;BME280;40102;50.906;6.972;2023-04-05T02:09:39;101665.38;;;5.42;52.57
54194;BME280;40102;50.906;6.972;2023-04-05T02:12:05;101658.56;;;5.29;53.42
54194;BME280;40102;50.906;6.972;2023-04-05T02:14:30;101651.63;;;5.22;54.00
54194;BME280;40102;50.906;6.972;2023-04-05T02:16:56;101655.34;;;5.13;54.51
54194;BME280;40102;50.906;6.972;2023-04-05T02:19:22;101656.31;;;5.09;54.78
54194;BME280;40102;50.906;6.972;2023-04-05T02:21:48;101657.31;;;5.02;55.09
54194;BME280;40102;50.906;6.972;2023-04-05T02:24:14;101658.31;;;4.97;55.57
54194;BME280;40102;50.906;6.972;2023-04-05T02:26:39;101654.84;;;4.92;55.64
54194;BME280;40102;50.906;6.972;2023-04-05T02:29:05;101649.44;;;4.98;55.23
54194;BME280;40102;50.906;6.972;2023-04-05T02:31:30;101641.84;;;4.78;55.93
54194;BME280;40102;50.906;6.972;2023-04-05T02:33:56;101644.53;;;4.76;56.62
54194;BME280;40102;50.906;6.972;2023-04-05T02:36:22;101651.88;;;4.59;57.06
54194;BME280;40102;50.906;6.972;2023-04-05T02:38:48;101655.56;;;4.49;57.26
54194;BME280;40102;50.906;6.972;2023-04-05T02:41:14;101650.22;;;4.52;56.89
54194;BME280;40102;50.906;6.972;2023-04-05T02:43:39;101645.72;;;4.57;56.74
54194;BME280;40102;50.906;6.972;2023-04-05T02:46:05;101649.13;;;4.65;56.94
54194;BME280;40102;50.906;6.972;2023-04-05T02:48:33;101654.47;;;4.62;57.07
54194;BME280;40102;50.906;6.972;2023-04-05T02:50:59;101643.34;;;4.40;57.31
54194;BME280;40102;50.906;6.972;2023-04-05T02:53:24;101650.59;;;4.28;56.40
54194;BME280;40102;50.906;6.972;2023-04-05T02:55:53;101655.28;;;4.09;57.15
54194;BME280;40102;50.906;6.972;2023-04-05T02:58:19;101653.47;;;4.12;57.10
54194;BME280;40102;50.906;6.972;2023-04-05T03:00:47;101657.88;;;4.13;57.18
54194;BME280;40102;50.906;6.972;2023-04-05T03:03:19;101658.84;;;4.08;57.12
54194;BME280;40102;50.906;6.972;2023-04-05T03:05:45;101659.88;;;3.98;57.76
54194;BME280;40102;50.906;6.972;2023-04-05T03:08:13;101659.94;;;3.92;58.26
54194;BME280;40102;50.906;6.972;2023-04-05T03:10:44;101660.88;;;3.89;58.75
54194;BME280;40102;50.906;6.972;2023-04-05T03:13:10;101664.41;;;3.86;59.13
54194;BME280;40102;50.906;6.972;2023-04-05T03:15:35;101658.19;;;3.90;58.78
54194;BME280;40102;50.906;6.972;2023-04-05T03:18:01;101658.09;;;3.97;58.68
54194;BME280;40102;50.906;6.972;2023-04-05T03:20:26;101654.53;;;4.01;58.94
54194;BME280;40102;50.906;6.972;2023-04-05T03:22:52;101660.78;;;3.95;58.75
54194;BME280;40102;50.906;6.972;2023-04-05T03:25:17;101652.06;;;3.87;59.15
54194;BME280;40102;50.906;6.972;2023-04-05T03:27:43;101647.84;;;3.72;59.75
54194;BME280;40102;50.906;6.972;2023-04-05T03:30:09;101656.00;;;3.54;60.86
54194;BME280;40102;50.906;6.972;2023-04-05T03:32:35;101656.19;;;3.39;61.47
54194;BME280;40102;50.906;6.972;2023-04-05T03:35:00;101657.16;;;3.30;62.11
54194;BME280;40102;50.906;6.972;2023-04-05T03:37:25;101649.19;;;3.35;62.17
54194;BME280;40102;50.906;6.972;2023-04-05T03:39:51;101649.19;;;3.35;61.96
54194;BME280;40102;50.906;6.972;2023-04-05T03:42:17;101647.41;;;3.35;62.18
54194;BME280;40102;50.906;6.972;2023-04-05T03:44:43;101651.88;;;3.30;62.34
54194;BME280;40102;50.906;6.972;2023-04-05T03:47:09;101651.03;;;3.27;62.02
54194;BME280;40102;50.906;6.972;2023-04-05T03:49:34;101638.75;;;3.21;62.10
54194;BME280;40102;50.906;6.972;2023-04-05T03:52:00;101649.28;;;3.25;62.16
54194;BME280;40102;50.906;6.972;2023-04-05T03:54:25;101642.22;;;3.26;61.56
54194;BME280;40102;50.906;6.972;2023-04-05T03:56:51;101641.19;;;3.41;60.80
54194;BME280;40102;50.906;6.972;2023-04-05T03:59:16;101634.78;;;3.58;60.33
54194;BME280;40102;50.906;6.972;2023-04-05T04:01:42;101637.19;;;3.77;59.84
54194;BME280;40102;50.906;6.972;2023-04-05T04:04:08;101639.50;;;4.01;59.49
54194;BME280;40102;50.906;6.972;2023-04-05T04:06:34;101635.47;;;4.36;58.27
54194;BME280;40102;50.906;6.972;2023-04-05T04:09:01;101635.72;;;4.74;56.43
54194;BME280;40102;50.906;6.972;2023-04-05T04:11:26;101628.06;;;5.07;55.24
54194;BME280;40102;50.906;6.972;2023-04-05T04:13:52;101621.34;;;5.32;54.34
54194;BME280;40102;50.906;6.972;2023-04-05T04:16:17;101624.44;;;5.54;53.57
54194;BME280;40102;50.906;6.972;2023-04-05T04:18:43;101628.63;;;5.66;53.02
54194;BME280;40102;50.906;6.972;2023-04-05T04:21:08;101634.56;;;5.78;52.77
54194;BME280;40102;50.906;6.972;2023-04-05T04:23:34;101629.97;;;5.85;52.52
54194;BME280;40102;50.906;6.972;2023-04-05T04:26:03;101628.00;;;5.96;52.47
54194;BME280;40102;50.906;6.972;2023-04-05T04:28:28;101631.47;;;6.00;52.12
54194;BME280;40102;50.906;6.972;2023-04-05T04:30:54;101636.66;;;6.04;51.74
54194;BME280;40102;50.906;6.972;2023-04-05T04:33:19;101633.09;;;6.05;51.54
54194;BME280;40102;50.906;6.972;2023-04-05T04:35:45;101626.88;;;6.06;51.25
54194;BME280;40102;50.906;6.972;2023-04-05T04:38:11;101627.19;;;5.93;51.73
54194;BME280;40102;50.906;6.972;2023-04-05T04:40:44;101626.78;;;5.69;51.98
54194;BME280;40102;50.906;6.972;2023-04-05T04:43:17;101642.69;;;5.26;53.07
54194;BME280;40102;50.906;6.972;2023-04-05T04:45:47;101632.31;;;4.66;54.90
54194;BME280;40102;50.906;6.972;2023-04-05T04:48:14;101634.16;;;4.06;57.32
54194;BME280;40102;50.906;6.972;2023-04-05T04:50:44;101641.06;;;3.51;59.70
54194;BME280;40102;50.906;6.972;2023-04-05T04:53:10;101642.41;;;3.08;61.02
54194;BME280;40102;50.906;6.972;2023-04-05T04:55:38;101648.84;;;2.82;61.76
54194;BME280;40102;50.906;6.972;2023-04-05T04:58:07;101642.72;;;2.79;62.02
54194;BME280;40102;50.906;6.972;2023-04-05T05:00:42;101633.88;;;2.81;61.69
54194;BME280;40102;50.906;6.972;2023-04-05T05:03:09;101648.91;;;2.73;61.64
54194;BME280;40102;50.906;6.972;2023-04-05T05:05:48;101650.78;;;2.60;61.90
54194;BME280;40102;50.906;6.972;2023-04-05T05:08:14;101645.63;;;2.47;63.03
54194;BME280;40102;50.906;6.972;2023-04-05T05:10:40;101646.53;;;2.43;63.16
54194;BME280;40102;50.906;6.972;2023-04-05T05:13:05;101644.91;;;2.22;64.30
54194;BME280;40102;50.906;6.972;2023-04-05T05:15:31;101640.63;;;2.07;65.23
54194;BME280;40102;50.906;6.972;2023-04-05T05:17:56;101655.59;;;2.01;65.56
54194;BME280;40102;50.906;6.972;2023-04-05T05:20:23;101660.94;;;1.93;65.74
54194;BME280;40102;50.906;6.972;2023-04-05T05:22:49;101652.13;;;1.92;65.60
54194;BME280;40102;50.906;6.972;2023-04-05T05:25:15;101649.41;;;2.09;65.62
54194;BME280;40102;50.906;6.972;2023-04-05T05:27:40;101651.09;;;2.18;64.81
54194;BME280;40102;50.906;6.972;2023-04-05T05:30:06;101651.88;;;2.32;64.43
54194;BME280;40102;50.906;6.972;2023-04-05T05:32:32;101644.78;;;2.42;64.49
54194;BME280;40102;50.906;6.972;2023-04-05T05:34:57;101642.94;;;2.53;64.11
54194;BME280;40102;50.906;6.972;2023-04-05T05:37:30;101645.56;;;2.51;64.71
54194;BME280;40102;50.906;6.972;2023-04-05T05:39:56;101641.19;;;2.49;64.79
54194;BME280;40102;50.906;6.972;2023-04-05T05:42:21;101638.56;;;2.49;64.41
54194;BME280;40102;50.906;6.972;2023-04-05T05:44:46;101639.47;;;2.46;64.59
54194;BME280;40102;50.906;6.972;2023-04-05T05:47:12;101634.03;;;2.65;70.38
54194;BME280;40102;50.906;6.972;2023-04-05T05:49:37;101630.25;;;2.93;66.99
54194;BME280;40102;50.906;6.972;2023-04-05T05:52:03;101643.44;;;2.95;63.08
54194;BME280;40102;50.906;6.972;2023-04-05T05:54:29;101649.53;;;3.01;70.80
54194;BME280;40102;50.906;6.972;2023-04-05T05:56:54;101656.41;;;3.19;62.55
54194;BME280;40102;50.906;6.972;2023-04-05T05:59:19;101651.22;;;3.10;61.57
54194;BME280;40102;50.906;6.972;2023-04-05T06:01:45;101654.81;;;3.01;62.55
54194;BME280;40102;50.906;6.972;2023-04-05T06:04:14;101654.84;;;2.98;62.20
54194;BME280;40102;50.906;6.972;2023-04-05T06:06:40;101640.72;;;3.01;62.40
54194;BME280;40102;50.906;6.972;2023-04-05T06:09:08;101644.91;;;3.23;62.36
54194;BME280;40102;50.906;6.972;2023-04-05T06:11:34;101655.13;;;3.55;61.11
54194;BME280;40102;50.906;6.972;2023-04-05T06:14:00;101654.72;;;3.87;59.83
54194;BME280;40102;50.906;6.972;2023-04-05T06:16:25;101637.53;;;4.15;59.02
54194;BME280;40102;50.906;6.972;2023-04-05T06:18:52;101635.53;;;4.33;57.46
54194;BME280;40102;50.906;6.972;2023-04-05T06:21:20;101640.06;;;4.25;58.16
54194;BME280;40102;50.906;6.972;2023-04-05T06:23:46;101635.66;;;4.23;58.38
54194;BME280;40102;50.906;6.972;2023-04-05T06:26:22;101644.97;;;4.49;57.53
54194;BME280;40102;50.906;6.972;2023-04-05T06:28:51;101634.88;;;4.72;56.43
54194;BME280;40102;50.906;6.972;2023-04-05T06:31:19;101630.06;;;4.94;55.18
54194;BME280;40102;50.906;6.972;2023-04-05T06:33:45;101630.41;;;4.74;55.58
54194;BME280;40102;50.906;6.972;2023-04-05T06:36:11;101627.81;;;4.71;56.22
54194;BME280;40102;50.906;6.972;2023-04-05T06:38:36;101636.59;;;4.75;55.89
54194;BME280;40102;50.906;6.972;2023-04-05T06:41:02;101634.69;;;4.83;55.67
54194;BME280;40102;50.906;6.972;2023-04-05T06:43:28;101631.81;;;4.95;54.78
54194;BME280;40102;50.906;6.972;2023-04-05T06:45:57;101642.41;;;4.97;54.69
54194;BME280;40102;50.906;6.972;2023-04-05T06:48:23;101636.31;;;4.92;54.70
54194;BME280;40102;50.906;6.972;2023-04-05T06:50:58;101636.41;;;4.85;54.50
54194;BME280;40102;50.906;6.972;2023-04-05T06:53:25;101633.31;;;4.61;54.93
54194;BME280;40102;50.906;6.972;2023-04-05T06:55:53;101640.50;;;4.52;55.51
54194;BME280;40102;50.906;6.972;2023-04-05T06:58:18;101642.28;;;4.52;55.71
54194;BME280;40102;50.906;6.972;2023-04-05T07:00:45;101644.03;;;4.53;56.05
54194;BME280;40102;50.906;6.972;2023-04-05T07:03:11;101635.22;;;4.51;56.34
54194;BME280;40102;50.906;6.972;2023-04-05T07:05:36;101640.56;;;4.49;57.05
54194;BME280;40102;50.906;6.972;2023-04-05T07:08:01;101640.63;;;4.45;56.80
54194;BME280;40102;50.906;6.972;2023-04-05T07:10:27;101645.03;;;4.46;57.33
54194;BME280;40102;50.906;6.972;2023-04-05T07:12:53;101644.22;;;4.41;57.51
54194;BME280;40102;50.906;6.972;2023-04-05T07:15:18;101637.94;;;4.48;55.75
54194;BME280;40102;50.906;6.972;2023-04-05T07:17:43;101637.13;;;4.43;55.86
54194;BME280;40102;50.906;6.972;2023-04-05T07:20:09;101631.81;;;4.44;56.26
54194;BME280;40102;50.906;6.972;2023-04-05T07:22:35;101636.06;;;4.53;56.21
54194;BME280;40102;50.906;6.972;2023-04-05T07:25:00;101635.00;;;4.65;55.78
54194;BME280;40102;50.906;6.972;2023-04-05T07:27:28;101626.91;;;4.74;54.92
54194;BME280;40102;50.906;6.972;2023-04-05T07:29:55;101627.94;;;4.65;55.94
54194;BME280;40102;50.906;6.972;2023-04-05T07:32:20;101626.91;;;4.72;54.18
54194;BME280;40102;50.906;6.972;2023-04-05T07:34:46;101630.34;;;4.79;54.63
54194;BME280;40102;50.906;6.972;2023-04-05T07:37:12;101615.91;;;4.95;54.26
54194;BME280;40102;50.906;6.972;2023-04-05T07:39:38;101622.91;;;4.99;54.88
54194;BME280;40102;50.906;6.972;2023-04-05T07:42:03;101625.34;;;5.10;54.43
54194;BME280;40102;50.906;6.972;2023-04-05T07:44:29;101627.03;;;5.14;54.60
54194;BME280;40102;50.906;6.972;2023-04-05T07:46:55;101630.28;;;5.28;53.71
54194;BME280;40102;50.906;6.972;2023-04-05T07:49:25;101614.03;;;5.45;52.99
54194;BME280;40102;50.906;6.972;2023-04-05T07:51:53;101623.41;;;5.61;52.59
54194;BME280;40102;50.906;6.972;2023-04-05T07:54:19;101625.91;;;5.69;52.11
54194;BME280;40102;50.906;6.972;2023-04-05T07:56:45;101621.41;;;5.72;51.84
54194;BME280;40102;50.906;6.972;2023-04-05T07:59:11;101616.91;;;5.76;52.00
54194;BME280;40102;50.906;6.972;2023-04-05T08:01:37;101626.69;;;5.74;51.34
54194;BME280;40102;50.906;6.972;2023-04-05T08:04:02;101624.09;;;5.71;52.08
54194;BME280;40102;50.906;6.972;2023-04-05T08:06:28;101625.94;;;5.67;51.23
54194;BME280;40102;50.906;6.972;2023-04-05T08:08:53;101619.59;;;5.74;51.81
54194;BME280;40102;50.906;6.972;2023-04-05T08:11:19;101624.88;;;5.76;51.08
54194;BME280;40102;50.906;6.972;2023-04-05T08:13:45;101629.25;;;5.78;52.38
54194;BME280;40102;50.906;6.972;2023-04-05T08:16:11;101623.91;;;5.80;52.63
54194;BME280;40102;50.906;6.972;2023-04-05T08:18:36;101622.16;;;5.79;52.13
54194;BME280;40102;50.906;6.972;2023-04-05T08:21:02;101614.91;;;5.87;51.72
54194;BME280;40102;50.906;6.972;2023-04-05T08:23:28;101609.47;;;5.93;51.33
54194;BME280;40102;50.906;6.972;2023-04-05T08:25:54;101609.38;;;5.98;51.17
54194;BME280;40102;50.906;6.972;2023-04-05T08:28:19;101607.50;;;6.03;51.16
54194;BME280;40102;50.906;6.972;2023-04-05T08:30:46;101609.19;;;6.05;52.50
54194;BME280;40102;50.906;6.972;2023-04-05T08:33:11;101613.59;;;6.06;51.36
54194;BME280;40102;50.906;6.972;2023-04-05T08:35:38;101625.03;;;6.10;50.53
54194;BME280;40102;50.906;6.972;2023-04-05T08:38:06;101612.41;;;6.20;51.24
54194;BME280;40102;50.906;6.972;2023-04-05T08:40:38;101616.69;;;6.27;50.83
54194;BME280;40102;50.906;6.972;2023-04-05T08:43:33;101610.25;;;6.35;51.52
54194;BME280;40102;50.906;6.972;2023-04-05T08:46:02;101615.34;;;6.44;49.89
54194;BME280;40102;50.906;6.972;2023-04-05T08:48:32;101615.22;;;6.50;50.10
54194;BME280;40102;50.906;6.972;2023-04-05T08:51:00;101609.97;;;6.47;50.71
54194;BME280;40102;50.906;6.972;2023-04-05T08:53:26;101618.59;;;6.57;50.69
54194;BME280;40102;50.906;6.972;2023-04-05T08:55:56;101619.13;;;6.71;50.31
54194;BME280;40102;50.906;6.972;2023-04-05T08:58:25;101613.44;;;6.85;49.79
54194;BME280;40102;50.906;6.972;2023-04-05T09:00:50;101609.63;;;6.95;49.52
54194;BME280;40102;50.906;6.972;2023-04-05T09:03:19;101605.94;;;7.01;49.76
54194;BME280;40102;50.906;6.972;2023-04-05T09:05:48;101613.78;;;7.05;49.38
54194;BME280;40102;50.906;6.972;2023-04-05T09:08:15;101605.69;;;7.10;49.23
54194;BME280;40102;50.906;6.972;2023-04-05T09:10:41;101601.03;;;7.18;48.64
54194;BME280;40102;50.906;6.972;2023-04-05T09:13:06;101598.22;;;7.23;48.44
54194;BME280;40102;50.906;6.972;2023-04-05T09:15:34;101613.31;;;7.22;47.90
54194;BME280;40102;50.906;6.972;2023-04-05T09:18:00;101602.69;;;7.22;47.83
54194;BME280;40102;50.906;6.972;2023-04-05T09:20:25;101601.75;;;7.23;47.74
54194;BME280;40102;50.906;6.972;2023-04-05T09:22:51;101593.75;;;7.25;47.92
54194;BME280;40102;50.906;6.972;2023-04-05T09:25:34;101598.09;;;7.27;47.34
54194;BME280;40102;50.906;6.972;2023-04-05T09:28:01;101598.97;;;7.28;47.65
54194;BME280;40102;50.906;6.972;2023-04-05T09:30:29;101588.25;;;7.31;48.07
54194;BME280;40102;50.906;6.972;2023-04-05T09:32:55;101596.97;;;7.36;46.56
54194;BME280;40102;50.906;6.972;2023-04-05T09:35:23;101591.50;;;7.40;46.87
54194;BME280;40102;50.906;6.972;2023-04-05T09:37:53;101594.09;;;7.43;46.79
54194;BME280;40102;50.906;6.972;2023-04-05T09:40:19;101590.28;;;7.52;46.27
54194;BME280;40102;50.906;6.972;2023-04-05T09:42:45;101592.84;;;7.55;46.11
54194;BME280;40102;50.906;6.972;2023-04-05T09:45:11;101587.50;;;7.57;45.51
54194;BME280;40102;50.906;6.972;2023-04-05T09:47:37;101588.19;;;7.63;45.58
54194;BME280;40102;50.906;6.972;2023-04-05T09:50:16;101583.63;;;7.67;45.36
54194;BME280;40102;50.906;6.972;2023-04-05T09:52:42;101582.63;;;7.71;45.03
54194;BME280;40102;50.906;6.972;2023-04-05T09:55:09;101579.78;;;7.77;44.46
54194;BME280;40102;50.906;6.972;2023-04-05T09:57:39;101572.47;;;7.84;43.81
54194;BME280;40102;50.906;6.972;2023-04-05T10:00:16;101573.25;;;7.87;44.05
54194;BME280;40102;50.906;6.972;2023-04-05T10:02:41;101571.22;;;7.95;44.53
54194;BME280;40102;50.906;6.972;2023-04-05T10:05:08;101569.28;;;8.00;44.29
54194;BME280;40102;50.906;6.972;2023-04-05T10:07:40;101564.63;;;8.07;44.28
54194;BME280;40102;50.906;6.972;2023-04-05T10:10:06;101556.69;;;8.05;43.43
54194;BME280;40102;50.906;6.972;2023-04-05T10:12:33;101566.53;;;8.03;42.78
54194;BME280;40102;50.906;6.972;2023-04-05T10:15:01;101557.75;;;8.00;42.73
54194;BME280;40102;50.906;6.972;2023-04-05T10:17:36;101554.84;;;8.07;43.62
54194;BME280;40102;50.906;6.972;2023-04-05T10:25:30;101542.03;;;8.19;41.63
54194;BME280;40102;50.906;6.972;2023-04-05T10:28:04;101555.06;;;8.28;42.03
54194;BME280;40102;50.906;6.972;2023-04-05T10:30:35;101545.97;;;8.35;41.54
54194;BME280;40102;50.906;6.972;2023-04-05T10:33:21;101552.94;;;8.39;41.69
54194;BME280;40102;50.906;6.972;2023-04-05T10:36:08;101549.00;;;8.51;41.80
54194;BME280;40102;50.906;6.972;2023-04-05T10:38:58;101542.59;;;8.56;40.29
54194;BME280;40102;50.906;6.972;2023-04-05T10:41:25;101542.59;;;8.56;40.80
54194;BME280;40102;50.906;6.972;2023-04-05T10:43:51;101538.03;;;8.60;40.64
54194;BME280;40102;50.906;6.972;2023-04-05T10:46:21;101538.03;;;8.60;40.55
54194;BME280;40102;50.906;6.972;2023-04-05T10:51:17;101531.72;;;8.62;40.71
54194;BME280;40102;50.906;6.972;2023-04-05T10:53:45;101529.66;;;8.70;40.86
54194;BME280;40102;50.906;6.972;2023-04-05T10:56:11;101516.84;;;8.80;41.38
54194;BME280;40102;50.906;6.972;2023-04-05T10:58:37;101511.56;;;8.79;41.59
54194;BME280;40102;50.906;6.972;2023-04-05T11:01:05;101512.28;;;8.84;40.18
54194;BME280;40102;50.906;6.972;2023-04-05T11:06:25;101516.69;;;8.85;40.16
54194;BME280;40102;50.906;6.972;2023-04-05T11:09:11;101519.41;;;8.83;40.39
54194;BME280;40102;50.906;6.972;2023-04-05T11:11:41;101506.88;;;8.85;40.78
54194;BME280;40102;50.906;6.972;2023-04-05T11:16:47;101505.34;;;9.03;40.29
54194;BME280;40102;50.906;6.972;2023-04-05T11:19:15;101506.06;;;9.08;40.27
54194;BME280;40102;50.906;6.972;2023-04-05T11:21:41;101499.56;;;9.15;38.80
54194;BME280;40102;50.906;6.972;2023-04-05T11:24:09;101502.00;;;9.21;39.91
54194;BME280;40102;50.906;6.972;2023-04-05T11:29:05;101510.53;;;9.31;39.60
54194;BME280;40102;50.906;6.972;2023-04-05T11:31:31;101504.91;;;9.38;39.10
54194;BME280;40102;50.906;6.972;2023-04-05T11:33:58;101501.13;;;9.44;39.47
54194;BME280;40102;50.906;6.972;2023-04-05T11:36:31;101494.19;;;9.62;39.76
54194;BME280;40102;50.906;6.972;2023-04-05T11:42:02;101485.00;;;9.69;37.64
54194;BME280;40102;50.906;6.972;2023-04-05T11:44:47;101491.03;;;9.74;38.29
54194;BME280;40102;50.906;6.972;2023-04-05T11:47:16;101485.44;;;9.80;38.44
54194;BME280;40102;50.906;6.972;2023-04-05T11:49:42;101480.91;;;9.82;39.04
54194;BME280;40102;50.906;6.972;2023-04-05T11:52:13;101483.88;;;9.96;38.37
54194;BME280;40102;50.906;6.972;2023-04-05T11:54:40;101475.38;;;10.09;37.83
54194;BME280;40102;50.906;6.972;2023-04-05T11:57:10;101483.06;;;10.16;37.86
54194;BME280;40102;50.906;6.972;2023-04-05T11:59:36;101473.75;;;10.26;38.55
54194;BME280;40102;50.906;6.972;2023-04-05T12:02:04;101462.25;;;10.45;37.32
54194;BME280;40102;50.906;6.972;2023-04-05T12:04:32;101468.72;;;10.59;36.87
54194;BME280;40102;50.906;6.972;2023-04-05T12:07:17;101467.72;;;10.62;35.32
54194;BME280;40102;50.906;6.972;2023-04-05T12:10:04;101456.34;;;10.57;35.99
54194;BME280;40102;50.906;6.972;2023-04-05T12:12:37;101460.69;;;10.59;36.90
54194;BME280;40102;50.906;6.972;2023-04-05T12:15:04;101451.41;;;10.68;36.51
54194;BME280;40102;50.906;6.972;2023-04-05T12:17:46;101458.41;;;10.91;37.07
54194;BME280;40102;50.906;6.972;2023-04-05T12:20:16;101445.63;;;11.16;36.04
54194;BME280;40102;50.906;6.972;2023-04-05T12:22:44;101447.59;;;11.31;34.98
54194;BME280;40102;50.906;6.972;2023-04-05T12:25:10;101448.16;;;11.38;34.91
54194;BME280;40102;50.906;6.972;2023-04-05T12:27:37;101448.38;;;11.52;36.40
54194;BME280;40102;50.906;6.972;2023-04-05T12:30:17;101442.25;;;11.67;33.54
54194;BME280;40102;50.906;6.972;2023-04-05T12:32:53;101441.88;;;11.94;34.83
54194;BME280;40102;50.906;6.972;2023-04-05T12:35:21;101431.66;;;12.19;35.78
54194;BME280;40102;50.906;6.972;2023-04-05T12:37:51;101428.81;;;12.40;34.95
54194;BME280;40102;50.906;6.972;2023-04-05T12:40:21;101422.88;;;12.50;33.74
54194;BME280;40102;50.906;6.972;2023-04-05T12:42:47;101425.31;;;12.55;33.97
54194;BME280;40102;50.906;6.972;2023-04-05T12:45:12;101413.47;;;12.59;33.51
54194;BME280;40102;50.906;6.972;2023-04-05T12:50:14;101409.94;;;12.91;31.28
54194;BME280;40102;50.906;6.972;2023-04-05T12:53:00;101410.13;;;13.04;31.44
54194;BME280;40102;50.906;6.972;2023-04-05T12:55:29;101414.53;;;13.22;33.01
54194;BME280;40102;50.906;6.972;2023-04-05T12:57:59;101412.34;;;13.60;33.82
54194;BME280;40102;50.906;6.972;2023-04-05T13:00:27;101411.97;;;13.82;31.95
54194;BME280;40102;50.906;6.972;2023-04-05T13:02:54;101415.00;;;13.92;31.88
54194;BME280;40102;50.906;6.972;2023-04-05T13:05:25;101404.22;;;14.08;32.27
54194;BME280;40102;50.906;6.972;2023-04-05T13:07:51;101400.41;;;14.26;31.00
54194;BME280;40102;50.906;6.972;2023-04-05T13:10:22;101398.56;;;14.12;29.99
54194;BME280;40102;50.906;6.972;2023-04-05T13:12:48;101395.78;;;14.14;31.76
54194;BME280;40102;50.906;6.972;2023-04-05T13:15:15;101391.91;;;14.04;28.55
54194;BME280;40102;50.906;6.972;2023-04-05T13:17:43;101391.09;;;13.72;29.26
54194;BME280;40102;50.906;6.972;2023-04-05T13:20:12;101379.34;;;13.88;30.17
54194;BME280;40102;50.906;6.972;2023-04-05T13:22:38;101374.16;;;13.85;28.61
54194;BME280;40102;50.906;6.972;2023-04-05T13:25:04;101381.22;;;13.72;29.40
54194;BME280;40102;50.906;6.972;2023-04-05T13:27:29;101377.81;;;13.84;30.38
54194;BME280;40102;50.906;6.972;2023-04-05T13:29:55;101368.41;;;14.21;29.48
54194;BME280;40102;50.906;6.972;2023-04-05T13:32:20;101384.28;;;14.40;30.52
54194;BME280;40102;50.906;6.972;2023-04-05T13:34:46;101377.16;;;14.69;30.09
54194;BME280;40102;50.906;6.972;2023-04-05T13:37:12;101358.50;;;14.80;28.61
54194;BME280;40102;50.906;6.972;2023-04-05T13:39:38;101357.22;;;15.00;28.97